createdAt,value
2018-01-26T00:00:06.168Z,13.43
2018-01-26T00:02:34.511Z,12.23
2018-01-26T00:05:02.841Z,22.30
2018-01-26T00:07:31.172Z,18.87
2018-01-26T00:09:59.520Z,11.17
2018-01-26T00:12:27.824Z,11.83
2018-01-26T00:14:56.136Z,14.83
2018-01-26T00:17:24.703Z,9.80
2018-01-26T00:19:53.037Z,16.90
2018-01-26T00:22:21.338Z,26.70
2018-01-26T00:24:49.708Z,14.20
2018-01-26T00:27:18.044Z,13.43
2018-01-26T00:29:46.341Z,14.90
2018-01-26T00:32:14.699Z,11.63
2018-01-26T00:34:43.015Z,16.63
2018-01-26T00:37:11.351Z,18.83
2018-01-26T00:39:39.800Z,8.43
2018-01-26T00:42:08.146Z,11.90
2018-01-26T00:44:37.273Z,42.37
2018-01-26T00:47:05.620Z,16.83
2018-01-26T00:49:33.912Z,13.93
2018-01-26T00:52:02.238Z,12.77
2018-01-26T00:54:30.612Z,7.77
2018-01-26T00:56:59.691Z,12.20
2018-01-26T00:59:28.064Z,16.57
2018-01-26T01:01:56.602Z,10.47
2018-01-26T01:04:24.928Z,9.97
2018-01-26T01:06:54.016Z,7.20
2018-01-26T01:09:22.358Z,9.73
2018-01-26T01:11:50.671Z,6.10
2018-01-26T01:14:18.972Z,9.93
2018-01-26T01:16:48.131Z,16.40
2018-01-26T01:19:16.454Z,11.33
2018-01-26T01:21:45.564Z,12.93
2018-01-26T01:24:14.184Z,7.83
2018-01-26T01:26:42.513Z,6.87
2018-01-26T01:29:11.615Z,15.83
2018-01-26T01:31:40.745Z,16.00
2018-01-26T01:34:09.063Z,8.87
2018-01-26T01:36:37.405Z,11.10
2018-01-26T01:39:05.774Z,12.43
2018-01-26T01:41:34.067Z,9.30
2018-01-26T01:44:02.393Z,9.10
2018-01-26T01:46:31.285Z,14.50
2018-01-26T01:49:17.688Z,18.07
2018-01-26T01:51:46.816Z,11.20
2018-01-26T01:54:15.175Z,7.47
2018-01-26T01:56:43.519Z,8.40
2018-01-26T01:59:11.866Z,6.27
2018-01-26T02:01:40.160Z,14.63
2018-01-26T02:04:08.478Z,9.50
2018-01-26T02:06:37.827Z,14.67
2018-01-26T02:09:06.184Z,10.57
2018-01-26T02:11:34.524Z,15.43
2018-01-26T02:14:02.901Z,10.67
2018-01-26T02:16:31.218Z,9.10
2018-01-26T02:18:59.517Z,8.13
2018-01-26T02:21:27.908Z,15.53
2018-01-26T02:23:56.268Z,8.00
2018-01-26T02:26:24.593Z,8.73
2018-01-26T02:28:53.512Z,13.43
2018-01-26T02:31:22.611Z,13.13
2018-01-26T02:33:50.924Z,12.83
2018-01-26T02:36:19.350Z,9.20
2018-01-26T02:38:47.842Z,9.53
2018-01-26T02:41:16.158Z,7.83
2018-01-26T02:43:44.540Z,10.33
2018-01-26T02:46:12.877Z,17.07
2018-01-26T02:48:41.199Z,9.10
2018-01-26T02:51:10.531Z,10.93
2018-01-26T02:53:38.833Z,9.27
2018-01-26T02:56:07.154Z,15.07
2018-01-26T02:58:35.486Z,18.00
2018-01-26T03:01:03.796Z,14.60
2018-01-26T03:03:32.108Z,10.37
2018-01-26T03:06:00.466Z,15.17
2018-01-26T03:08:28.832Z,17.87
2018-01-26T03:10:57.168Z,23.67
2018-01-26T03:13:25.893Z,8.67
2018-01-26T03:15:54.250Z,10.03
2018-01-26T03:18:22.564Z,13.40
2018-01-26T03:20:50.900Z,12.03
2018-01-26T03:23:19.992Z,11.90
2018-01-26T03:25:49.099Z,7.47
2018-01-26T03:28:18.199Z,10.40
2018-01-26T03:30:46.480Z,9.37
2018-01-26T03:33:14.799Z,18.43
2018-01-26T03:35:43.313Z,11.87
2018-01-26T03:38:11.632Z,11.23
2018-01-26T03:40:39.992Z,9.53
2018-01-26T03:43:09.088Z,8.07
2018-01-26T03:45:38.175Z,8.13
2018-01-26T03:48:07.271Z,8.87
2018-01-26T03:50:36.377Z,10.53
2018-01-26T03:53:05.462Z,13.93
2018-01-26T03:55:34.568Z,19.30
2018-01-26T03:58:04.173Z,16.80
2018-01-26T04:00:33.286Z,8.43
2018-01-26T04:03:01.625Z,12.67
2018-01-26T04:05:29.937Z,9.43
2018-01-26T04:07:58.245Z,13.33
2018-01-26T04:10:26.569Z,11.73
2018-01-26T04:12:54.957Z,18.10
2018-01-26T04:15:24.090Z,12.30
2018-01-26T04:17:52.418Z,13.50
2018-01-26T04:20:20.987Z,12.77
2018-01-26T04:22:49.292Z,12.73
2018-01-26T04:25:18.375Z,13.53
2018-01-26T04:27:46.696Z,12.20
2018-01-26T04:30:15.026Z,13.80
2018-01-26T04:32:43.363Z,17.17
2018-01-26T04:35:11.740Z,14.73
2018-01-26T04:37:40.072Z,15.83
2018-01-26T04:40:08.357Z,13.03
2018-01-26T04:42:37.251Z,10.67
2018-01-26T04:45:05.540Z,14.47
2018-01-26T04:47:33.871Z,10.87
2018-01-26T04:50:02.976Z,13.33
2018-01-26T04:52:31.312Z,9.03
2018-01-26T04:54:59.621Z,15.40
2018-01-26T04:57:28.222Z,11.00
2018-01-26T04:59:56.590Z,15.97
2018-01-26T05:02:24.963Z,16.70
2018-01-26T05:04:53.780Z,12.70
2018-01-26T05:07:22.174Z,12.83
2018-01-26T05:09:50.515Z,17.50
2018-01-26T05:12:18.861Z,17.83
2018-01-26T05:14:47.182Z,16.97
2018-01-26T05:17:15.526Z,13.90
2018-01-26T05:19:43.943Z,15.37
2018-01-26T05:22:12.380Z,20.63
2018-01-26T05:24:40.742Z,19.93
2018-01-26T05:27:09.487Z,19.23
2018-01-26T05:29:37.870Z,15.73
2018-01-26T05:32:06.238Z,14.60
2018-01-26T05:34:34.730Z,19.50
2018-01-26T05:37:03.199Z,22.70
2018-01-26T05:39:31.581Z,18.20
2018-01-26T05:41:59.939Z,26.77
2018-01-26T05:44:28.260Z,22.43
2018-01-26T05:46:56.604Z,16.60
2018-01-26T05:49:26.273Z,22.27
2018-01-26T05:51:54.605Z,23.13
2018-01-26T05:54:22.923Z,27.30
2018-01-26T05:56:52.024Z,23.30
2018-01-26T05:59:21.123Z,24.00
2018-01-26T06:01:49.601Z,26.10
2018-01-26T06:04:17.934Z,22.10
2018-01-26T06:06:46.260Z,19.07
2018-01-26T06:09:14.579Z,29.73
2018-01-26T06:11:43.445Z,25.93
2018-01-26T06:14:11.841Z,25.10
2018-01-26T06:16:40.156Z,43.23
2018-01-26T06:19:08.499Z,48.40
2018-01-26T06:21:36.840Z,52.77
2018-01-26T06:24:05.922Z,50.10
2018-01-26T06:26:35.027Z,45.63
2018-01-26T06:29:04.104Z,40.97
2018-01-26T06:31:32.401Z,38.23
2018-01-26T06:34:01.989Z,33.37
2018-01-26T06:36:30.337Z,34.27
2018-01-26T06:38:58.674Z,30.27
2018-01-26T06:41:27.000Z,29.93
2018-01-26T06:43:55.300Z,35.40
2018-01-26T06:46:23.660Z,32.77
2018-01-26T06:48:52.014Z,33.73
2018-01-26T06:51:20.367Z,39.97
2018-01-26T06:53:49.492Z,41.33
2018-01-26T06:56:18.304Z,36.80
2018-01-26T06:58:46.607Z,41.10
2018-01-26T07:01:14.942Z,29.40
2018-01-26T07:03:44.236Z,35.63
2018-01-26T07:06:12.557Z,35.37
2018-01-26T07:08:40.887Z,41.00
2018-01-26T07:11:09.223Z,40.23
2018-01-26T07:13:37.557Z,38.10
2018-01-26T07:16:05.879Z,42.20
2018-01-26T07:18:34.432Z,46.03
2018-01-26T07:21:02.791Z,41.73
2018-01-26T07:23:31.151Z,52.07
2018-01-26T07:25:59.522Z,50.27
2018-01-26T07:28:27.842Z,43.17
2018-01-26T07:30:56.937Z,47.63
2018-01-26T07:33:25.271Z,46.37
2018-01-26T07:35:53.681Z,51.03
2018-01-26T07:38:22.000Z,60.33
2018-01-26T07:40:50.393Z,45.00
2018-01-26T07:43:19.480Z,47.93
2018-01-26T07:45:48.600Z,43.97
2018-01-26T07:48:16.967Z,45.47
2018-01-26T07:50:46.068Z,41.30
2018-01-26T07:53:15.162Z,40.73
2018-01-26T07:55:44.347Z,47.20
2018-01-26T07:58:13.431Z,43.40
2018-01-26T08:00:41.800Z,40.13
2018-01-26T08:03:10.892Z,41.00
2018-01-26T08:05:40.030Z,46.30
2018-01-26T08:08:09.126Z,41.83
2018-01-26T08:10:38.255Z,43.57
2018-01-26T08:13:07.034Z,46.57
2018-01-26T08:15:35.345Z,44.20
2018-01-26T08:18:03.707Z,46.43
2018-01-26T08:20:32.075Z,43.90
2018-01-26T08:23:00.391Z,56.37
2018-01-26T08:25:29.122Z,44.80
2018-01-26T08:27:58.207Z,43.60
2018-01-26T08:30:27.317Z,46.20
2018-01-26T08:32:55.644Z,49.03
2018-01-26T08:35:23.959Z,54.73
2018-01-26T08:37:52.269Z,58.53
2018-01-26T08:40:20.606Z,41.60
2018-01-26T08:42:48.927Z,50.00
2018-01-26T08:45:17.275Z,49.20
2018-01-26T08:47:45.903Z,53.10
2018-01-26T08:50:14.228Z,48.80
2018-01-26T08:52:43.341Z,53.80
2018-01-26T08:58:17.560Z,57.87
2018-01-26T09:00:45.908Z,54.77
2018-01-26T09:03:14.260Z,51.07
2018-01-26T09:05:42.591Z,58.23
2018-01-26T09:08:11.499Z,48.10
2018-01-26T09:10:40.575Z,54.60
2018-01-26T09:13:09.133Z,51.90
2018-01-26T09:15:38.368Z,54.10
2018-01-26T09:18:07.456Z,50.47
2018-01-26T09:20:35.807Z,51.50
2018-01-26T09:23:05.242Z,53.70
2018-01-26T09:25:33.581Z,62.20
2018-01-26T09:28:02.699Z,66.73
2018-01-26T09:30:31.954Z,67.67
2018-01-26T09:33:00.264Z,73.47
2018-01-26T09:35:29.359Z,75.30
2018-01-26T09:37:57.735Z,88.63
2018-01-26T09:40:26.080Z,78.63
2018-01-26T09:42:54.460Z,84.47
2018-01-26T09:45:22.859Z,90.33
2018-01-26T09:47:51.173Z,90.23
2018-01-26T09:50:19.529Z,84.37
2018-01-26T09:52:48.096Z,92.07
2018-01-26T09:55:16.518Z,87.93
2018-01-26T09:57:44.865Z,91.63
2018-01-26T10:00:13.275Z,106.57
2018-01-26T10:02:41.612Z,98.23
2018-01-26T10:05:09.948Z,97.80
2018-01-26T10:07:39.084Z,103.17
2018-01-26T10:10:08.484Z,100.67
2018-01-26T10:12:36.814Z,107.27
2018-01-26T10:15:05.602Z,107.97
2018-01-26T10:17:33.944Z,97.73
2018-01-26T10:20:02.259Z,108.20
2018-01-26T10:22:30.636Z,100.70
2018-01-26T10:24:58.971Z,107.80
2018-01-26T10:27:27.337Z,92.90
2018-01-26T10:29:55.704Z,95.80
2018-01-26T10:32:24.013Z,94.63
2018-01-26T10:34:52.344Z,104.13
2018-01-26T10:37:21.670Z,101.07
2018-01-26T10:39:50.053Z,99.67
2018-01-26T10:42:18.391Z,92.50
2018-01-26T10:44:46.725Z,92.87
2018-01-26T10:47:15.075Z,80.80
2018-01-26T10:49:43.385Z,100.70
2018-01-26T10:52:11.738Z,83.80
2018-01-26T10:54:40.094Z,99.47
2018-01-26T10:57:08.443Z,90.13
2018-01-26T10:59:37.146Z,91.60
2018-01-26T11:02:05.513Z,83.50
2018-01-26T11:04:33.895Z,93.80
2018-01-26T11:07:02.263Z,95.13
2018-01-26T11:09:30.669Z,102.20
2018-01-26T11:11:59.033Z,86.60
2018-01-26T11:14:27.417Z,92.17
2018-01-26T11:16:56.151Z,95.77
2018-01-26T11:19:24.497Z,96.87
2018-01-26T11:21:53.225Z,87.27
2018-01-26T11:24:21.555Z,94.13
2018-01-26T11:26:49.912Z,91.63
2018-01-26T11:29:18.394Z,85.90
2018-01-26T11:31:46.720Z,80.77
2018-01-26T11:34:15.818Z,87.23
2018-01-26T11:36:44.930Z,94.67
2018-01-26T11:39:13.268Z,91.73
2018-01-26T11:41:41.603Z,84.60
2018-01-26T11:44:10.376Z,86.47
2018-01-26T11:46:38.763Z,88.63
2018-01-26T11:49:07.090Z,72.37
2018-01-26T11:51:35.465Z,77.67
2018-01-26T11:54:03.804Z,83.23
2018-01-26T11:56:32.125Z,81.93
2018-01-26T11:59:00.480Z,86.33
2018-01-26T12:01:29.584Z,90.00
2018-01-26T12:03:58.707Z,91.07
2018-01-26T12:06:27.976Z,101.30
2018-01-26T12:08:56.324Z,98.97
2018-01-26T12:11:24.629Z,87.60
2018-01-26T12:13:53.022Z,88.97
2018-01-26T12:16:21.353Z,93.00
2018-01-26T12:18:49.671Z,78.70
2018-01-26T12:21:18.111Z,95.40
2018-01-26T12:23:46.458Z,98.70
2018-01-26T12:26:14.776Z,93.73
2018-01-26T12:28:43.353Z,90.87
2018-01-26T12:31:11.707Z,97.33
2018-01-26T12:33:40.012Z,94.57
2018-01-26T12:36:08.397Z,97.17
2018-01-26T12:38:36.719Z,88.47
2018-01-26T12:41:05.046Z,82.70
2018-01-26T12:43:33.445Z,87.50
2018-01-26T12:46:01.815Z,81.73
2018-01-26T12:48:30.159Z,79.90
2018-01-26T12:50:59.757Z,79.80
2018-01-26T12:53:28.116Z,84.03
2018-01-26T12:55:56.456Z,77.07
2018-01-26T12:58:24.839Z,98.43
2018-01-26T13:00:53.169Z,86.70
2018-01-26T13:03:21.503Z,85.00
2018-01-26T13:05:49.852Z,85.53
2018-01-26T13:08:18.203Z,91.33
2018-01-26T13:10:46.522Z,91.83
2018-01-26T13:13:15.272Z,82.17
2018-01-26T13:15:43.628Z,74.70
2018-01-26T13:18:11.951Z,77.20
2018-01-26T13:20:40.327Z,84.43
2018-01-26T13:23:08.663Z,72.33
2018-01-26T13:25:37.010Z,78.93
2018-01-26T13:28:05.400Z,68.13
2018-01-26T13:30:33.772Z,76.80
2018-01-26T13:33:02.093Z,78.80
2018-01-26T13:35:30.523Z,79.87
2018-01-26T13:37:58.833Z,96.33
2018-01-26T13:40:27.169Z,81.60
2018-01-26T13:42:55.537Z,75.73
2018-01-26T13:45:23.859Z,78.67
2018-01-26T13:47:52.197Z,89.00
2018-01-26T13:50:20.543Z,88.13
2018-01-26T13:52:48.879Z,86.53
2018-01-26T13:55:17.224Z,97.83
2018-01-26T13:57:46.008Z,90.27
2018-01-26T14:00:15.104Z,90.47
2018-01-26T14:02:43.482Z,104.03
2018-01-26T14:05:12.634Z,84.63
2018-01-26T14:07:40.935Z,89.13
2018-01-26T14:10:09.305Z,94.60
2018-01-26T14:12:37.628Z,83.53
2018-01-26T14:15:05.950Z,70.50
2018-01-26T14:17:34.266Z,81.50
2018-01-26T14:20:02.932Z,82.80
2018-01-26T14:22:31.257Z,89.47
2018-01-26T14:25:00.339Z,76.57
2018-01-26T14:27:29.471Z,73.03
2018-01-26T14:29:57.797Z,74.03
2018-01-26T14:32:26.935Z,65.97
2018-01-26T14:34:55.286Z,74.80
2018-01-26T14:37:24.435Z,61.43
2018-01-26T14:39:52.735Z,58.63
2018-01-26T14:42:21.403Z,70.37
2018-01-26T14:44:49.731Z,61.10
2018-01-26T14:47:18.083Z,65.63
2018-01-26T14:49:46.443Z,65.70
2018-01-26T14:52:14.885Z,62.13
2018-01-26T14:54:43.330Z,70.20
2018-01-26T14:57:11.689Z,60.47
2018-01-26T14:59:40.015Z,60.40
2018-01-26T15:02:08.394Z,71.57
2018-01-26T15:04:37.164Z,65.80
2018-01-26T15:07:06.258Z,66.80
2018-01-26T15:09:34.672Z,66.63
2018-01-26T15:12:03.021Z,70.40
2018-01-26T15:14:31.374Z,72.90
2018-01-26T15:16:59.752Z,67.03
2018-01-26T15:19:28.128Z,67.17
2018-01-26T15:21:56.467Z,69.97
2018-01-26T15:24:24.770Z,67.40
2018-01-26T15:26:53.337Z,70.10
2018-01-26T15:29:21.689Z,72.33
2018-01-26T15:31:50.794Z,72.77
2018-01-26T15:34:19.138Z,62.87
2018-01-26T15:36:47.497Z,64.13
2018-01-26T15:39:15.844Z,69.93
2018-01-26T15:41:44.457Z,64.80
2018-01-26T15:44:12.898Z,70.67
2018-01-26T15:46:41.218Z,69.73
2018-01-26T15:49:09.651Z,68.93
2018-01-26T15:51:37.983Z,58.97
2018-01-26T15:54:06.324Z,61.97
2018-01-26T15:56:34.694Z,64.00
2018-01-26T15:59:03.036Z,64.43
2018-01-26T16:01:31.359Z,78.83
2018-01-26T16:03:59.718Z,63.60
2018-01-26T16:06:28.035Z,79.37
2018-01-26T16:08:56.331Z,64.60
2018-01-26T16:11:25.189Z,77.63
2018-01-26T16:13:53.564Z,81.07
2018-01-26T16:16:21.869Z,77.47
2018-01-26T16:18:50.624Z,86.73
2018-01-26T16:21:18.954Z,79.57
2018-01-26T16:23:47.277Z,76.20
2018-01-26T16:26:15.674Z,76.90
2018-01-26T16:28:44.017Z,101.70
2018-01-26T16:31:12.365Z,86.50
2018-01-26T16:33:41.091Z,69.80
2018-01-26T16:36:09.405Z,79.77
2018-01-26T16:38:37.698Z,72.10
2018-01-26T16:41:06.028Z,75.90
2018-01-26T16:43:34.348Z,87.57
2018-01-26T16:46:02.672Z,76.70
2018-01-26T16:48:31.011Z,84.97
2018-01-26T16:50:59.470Z,83.80
2018-01-26T16:53:27.783Z,83.27
2018-01-26T16:55:57.041Z,83.83
2018-01-26T16:58:25.341Z,74.53
2018-01-26T17:00:53.673Z,82.60
2018-01-26T17:03:22.056Z,76.23
2018-01-26T17:05:50.399Z,90.83
2018-01-26T17:08:18.707Z,84.20
2018-01-26T17:10:47.798Z,76.23
2018-01-26T17:13:16.922Z,78.70
2018-01-26T17:15:45.224Z,79.40
2018-01-26T17:18:13.852Z,84.13
2018-01-26T17:20:42.979Z,74.63
2018-01-26T17:23:11.270Z,79.10
2018-01-26T17:25:39.586Z,92.87
2018-01-26T17:28:08.125Z,76.47
2018-01-26T17:30:36.464Z,76.33
2018-01-26T17:33:05.839Z,79.20
2018-01-26T17:35:34.168Z,77.67
2018-01-26T17:38:02.484Z,67.87
2018-01-26T17:40:30.990Z,83.27
2018-01-26T17:42:59.396Z,75.77
2018-01-26T17:45:28.494Z,70.67
2018-01-26T17:47:56.849Z,67.67
2018-01-26T17:50:25.187Z,77.03
2018-01-26T17:52:53.555Z,65.50
2018-01-26T17:55:21.918Z,87.80
2018-01-26T17:57:50.233Z,79.87
2018-01-26T18:00:18.564Z,73.47
2018-01-26T18:02:47.108Z,92.03
2018-01-26T18:05:15.444Z,76.37
2018-01-26T18:07:43.787Z,81.33
2018-01-26T18:10:12.462Z,73.10
2018-01-26T18:12:40.794Z,77.97
2018-01-26T18:15:09.085Z,80.37
2018-01-26T18:17:37.485Z,78.33
2018-01-26T18:20:05.818Z,88.20
2018-01-26T18:22:34.115Z,89.07
2018-01-26T18:25:02.598Z,83.67
2018-01-26T18:27:30.924Z,93.07
2018-01-26T18:30:00.043Z,86.40
2018-01-26T18:32:28.388Z,86.37
2018-01-26T18:34:56.690Z,84.37
2018-01-26T18:37:25.942Z,103.30
2018-01-26T18:39:54.303Z,90.67
2018-01-26T18:42:22.659Z,90.40
2018-01-26T18:44:51.024Z,93.43
2018-01-26T18:47:20.844Z,87.27
2018-01-26T18:49:49.929Z,81.97
2018-01-26T18:52:19.029Z,93.63
2018-01-26T18:54:48.133Z,90.77
2018-01-26T18:57:16.448Z,88.37
2018-01-26T18:59:44.782Z,96.33
2018-01-26T19:02:13.874Z,91.73
2018-01-26T19:04:42.976Z,100.03
2018-01-26T19:07:11.286Z,124.23
2018-01-26T19:09:39.704Z,91.70
2018-01-26T19:12:08.044Z,99.43
2018-01-26T19:14:36.357Z,93.70
2018-01-26T19:17:04.701Z,93.33
2018-01-26T19:19:33.032Z,99.37
2018-01-26T19:22:01.367Z,94.30
2018-01-26T19:24:30.206Z,101.80
2018-01-26T19:26:58.511Z,93.97
2018-01-26T19:29:26.864Z,91.13
2018-01-26T19:31:56.038Z,112.00
2018-01-26T19:34:24.440Z,126.70
2018-01-26T19:36:53.704Z,116.60
2018-01-26T19:39:22.088Z,110.27
2018-01-26T19:41:50.441Z,109.27
2018-01-26T19:44:19.668Z,124.97
2018-01-26T19:46:48.060Z,101.23
2018-01-26T19:49:16.430Z,109.53
2018-01-26T19:51:44.790Z,105.87
2018-01-26T19:54:13.360Z,130.30
2018-01-26T19:56:41.721Z,115.60
2018-01-26T19:59:10.066Z,117.23
2018-01-26T20:01:39.484Z,124.80
2018-01-26T20:04:07.833Z,106.03
2018-01-26T20:06:59.436Z,122.67
2018-01-26T20:09:27.780Z,127.57
2018-01-26T20:12:02.720Z,136.97
2018-01-26T20:14:31.084Z,120.93
2018-01-26T20:17:00.245Z,127.40
2018-01-26T20:19:28.622Z,114.17
2018-01-26T20:21:56.940Z,139.07
2018-01-26T20:24:26.068Z,123.50
2018-01-26T20:26:55.172Z,136.73
2018-01-26T20:29:23.502Z,129.77
2018-01-26T20:31:51.852Z,116.40
2018-01-26T20:34:20.301Z,115.10
2018-01-26T20:36:48.647Z,129.97
2018-01-26T20:39:16.966Z,122.23
2018-01-26T20:41:45.312Z,97.67
2018-01-26T20:44:14.425Z,112.20
2018-01-26T20:46:42.810Z,119.60
2018-01-26T20:49:11.166Z,115.57
2018-01-26T20:51:39.506Z,111.13
2018-01-26T20:54:07.869Z,114.37
2018-01-26T20:56:36.612Z,113.53
2018-01-26T20:59:04.922Z,117.77
2018-01-26T21:01:34.001Z,117.27
2018-01-26T21:04:02.424Z,121.30
2018-01-26T21:06:30.794Z,119.20
2018-01-26T21:08:59.176Z,110.50
2018-01-26T21:11:27.567Z,102.00
2018-01-26T21:13:55.944Z,120.07
2018-01-26T21:16:24.249Z,118.97
2018-01-26T21:18:53.473Z,103.43
2018-01-26T21:21:21.825Z,114.60
2018-01-26T21:23:50.180Z,107.97
2018-01-26T21:26:18.532Z,105.80
2018-01-26T21:28:46.899Z,101.87
2018-01-26T21:31:15.206Z,110.27
2018-01-26T21:33:43.980Z,102.67
2018-01-26T21:36:12.669Z,99.67
2018-01-26T21:38:41.076Z,106.13
2018-01-26T21:41:09.959Z,100.63
2018-01-26T21:43:38.313Z,108.70
2018-01-26T21:46:06.616Z,108.30
2018-01-26T21:48:34.982Z,86.73
2018-01-26T21:51:03.347Z,114.90
2018-01-26T21:53:31.679Z,92.57
2018-01-26T21:56:00.876Z,81.13
2018-01-26T21:58:29.990Z,96.03
2018-01-26T22:00:59.121Z,102.43
2018-01-26T22:03:27.546Z,104.43
2018-01-26T22:05:55.849Z,89.60
2018-01-26T22:08:24.184Z,87.23
2018-01-26T22:10:52.544Z,104.73
2018-01-26T22:13:20.912Z,104.27
2018-01-26T22:15:49.249Z,105.03
2018-01-26T22:18:17.601Z,92.23
2018-01-26T22:20:45.945Z,99.07
2018-01-26T22:23:14.260Z,93.20
2018-01-26T22:25:43.019Z,100.97
2018-01-26T22:28:11.377Z,93.00
2018-01-26T22:30:39.702Z,95.20
2018-01-26T22:33:08.067Z,89.77
2018-01-26T22:35:36.376Z,83.10
2018-01-26T22:38:05.478Z,75.13
2018-01-26T22:40:34.776Z,88.93
2018-01-26T22:43:03.118Z,82.50
2018-01-26T22:45:31.441Z,67.93
2018-01-26T22:47:59.853Z,68.17
2018-01-26T22:50:28.201Z,72.10
2018-01-26T22:52:56.551Z,75.10
2018-01-26T22:55:26.144Z,70.67
2018-01-26T22:57:54.467Z,66.53
2018-01-26T23:00:22.816Z,64.27
2018-01-26T23:02:51.205Z,72.33
2018-01-26T23:05:19.544Z,71.23
2018-01-26T23:07:47.855Z,81.90
2018-01-26T23:10:16.296Z,76.67
2018-01-26T23:12:44.614Z,81.57
2018-01-26T23:15:12.972Z,77.30
2018-01-26T23:17:41.312Z,75.43
2018-01-26T23:20:10.453Z,83.17
2018-01-26T23:22:38.807Z,76.83
2018-01-26T23:25:07.172Z,82.80
2018-01-26T23:27:35.517Z,79.27
2018-01-26T23:30:03.842Z,85.90
2018-01-26T23:32:32.787Z,90.87
2018-01-26T23:35:01.184Z,80.00
2018-01-26T23:37:30.260Z,85.07
2018-01-26T23:39:58.608Z,87.90
2018-01-26T23:42:26.910Z,94.93
2018-01-26T23:44:55.257Z,70.37
2018-01-26T23:47:23.609Z,83.30
2018-01-26T23:49:51.952Z,86.10
2018-01-26T23:52:20.288Z,80.17
2018-01-26T23:54:49.137Z,80.57
2018-01-26T23:57:17.457Z,83.77
2018-01-26T23:59:45.832Z,75.03
